sensor_id;sensor_type;location;lat;lon;timestamp;temperature;humidity
18932;DHT22;9598;50.954;3.112;2023-05-10T00:04:38;14.60;99.90
18932;DHT22;9598;50.954;3.112;2023-05-10T00:09:40;14.50;99.90
18932;DHT22;9598;50.954;3.112;2023-05-10T00:14:42;14.50;99.90
18932;DHT22;9598;50.954;3.112;2023-05-10T00:19:46;14.40;99.90
18932;DHT22;9598;50.954;3.112;2023-05-10T00:24:48;14.40;99.90
18932;DHT22;9598;50.954;3.112;2023-05-10T00:29:51;14.30;99.90
18932;DHT22;9598;50.954;3.112;2023-05-10T00:34:55;14.30;99.90
18932;DHT22;9598;50.954;3.112;2023-05-10T00:39:57;14.30;99.90
18932;DHT22;9598;50.954;3.112;2023-05-10T00:44:59;14.20;99.90
18932;DHT22;9598;50.954;3.112;2023-05-10T00:50:03;14.20;99.90
18932;DHT22;9598;50.954;3.112;2023-05-10T00:55:07;14.20;99.90
18932;DHT22;9598;50.954;3.112;2023-05-10T01:00:10;14.20;99.90
18932;DHT22;9598;50.954;3.112;2023-05-10T01:05:14;14.20;99.90
18932;DHT22;9598;50.954;3.112;2023-05-10T01:10:16;14.20;99.90
18932;DHT22;9598;50.954;3.112;2023-05-10T01:15:20;14.30;99.90
18932;DHT22;9598;50.954;3.112;2023-05-10T01:20:24;14.20;99.90
18932;DHT22;9598;50.954;3.112;2023-05-10T01:26:03;14.20;99.90
18932;DHT22;9598;50.954;3.112;2023-05-10T01:31:22;14.20;99.90
18932;DHT22;9598;50.954;3.112;2023-05-10T01:36:32;14.20;99.90
18932;DHT22;9598;50.954;3.112;2023-05-10T01:41:39;14.20;99.90
18932;DHT22;9598;50.954;3.112;2023-05-10T01:46:43;14.10;99.90
18932;DHT22;9598;50.954;3.112;2023-05-10T01:51:51;14.10;99.90
18932;DHT22;9598;50.954;3.112;2023-05-10T01:56:58;14.10;99.90
18932;DHT22;9598;50.954;3.112;2023-05-10T02:02:02;14.10;99.90
18932;DHT22;9598;50.954;3.112;2023-05-10T02:07:08;14.10;99.90
18932;DHT22;9598;50.954;3.112;2023-05-10T02:12:13;14.20;99.90
18932;DHT22;9598;50.954;3.112;2023-05-10T02:17:16;14.20;99.90
18932;DHT22;9598;50.954;3.112;2023-05-10T02:22:20;14.20;99.90
18932;DHT22;9598;50.954;3.112;2023-05-10T02:27:23;14.20;99.90
18932;DHT22;9598;50.954;3.112;2023-05-10T02:32:27;14.20;99.90
18932;DHT22;9598;50.954;3.112;2023-05-10T02:37:33;14.20;99.90
18932;DHT22;9598;50.954;3.112;2023-05-10T02:42:38;14.20;99.90
18932;DHT22;9598;50.954;3.112;2023-05-10T02:47:43;14.10;99.90
18932;DHT22;9598;50.954;3.112;2023-05-10T02:52:49;14.10;99.90
18932;DHT22;9598;50.954;3.112;2023-05-10T02:57:57;14.10;99.90
18932;DHT22;9598;50.954;3.112;2023-05-10T03:03:00;14.10;99.90
18932;DHT22;9598;50.954;3.112;2023-05-10T03:08:04;14.00;99.90
18932;DHT22;9598;50.954;3.112;2023-05-10T03:13:13;13.90;99.90
18932;DHT22;9598;50.954;3.112;2023-05-10T03:18:22;13.80;99.90
18932;DHT22;9598;50.954;3.112;2023-05-10T03:23:30;13.90;99.90
18932;DHT22;9598;50.954;3.112;2023-05-10T03:28:36;13.80;99.90
18932;DHT22;9598;50.954;3.112;2023-05-10T03:33:46;13.80;99.90
18932;DHT22;9598;50.954;3.112;2023-05-10T03:38:50;13.80;99.90
18932;DHT22;9598;50.954;3.112;2023-05-10T03:43:53;13.80;99.90
18932;DHT22;9598;50.954;3.112;2023-05-10T03:48:55;13.80;99.90
18932;DHT22;9598;50.954;3.112;2023-05-10T03:53:59;13.80;99.90
18932;DHT22;9598;50.954;3.112;2023-05-10T03:59:02;13.80;99.90
18932;DHT22;9598;50.954;3.112;2023-05-10T04:04:08;13.80;99.90
18932;DHT22;9598;50.954;3.112;2023-05-10T04:09:11;13.80;99.90
18932;DHT22;9598;50.954;3.112;2023-05-10T04:14:13;13.80;99.90
18932;DHT22;9598;50.954;3.112;2023-05-10T04:19:15;13.80;99.90
18932;DHT22;9598;50.954;3.112;2023-05-10T04:24:19;13.80;99.90
18932;DHT22;9598;50.954;3.112;2023-05-10T04:29:21;13.90;99.90
18932;DHT22;9598;50.954;3.112;2023-05-10T04:34:23;13.90;99.90
18932;DHT22;9598;50.954;3.112;2023-05-10T04:39:27;13.90;99.90
18932;DHT22;9598;50.954;3.112;2023-05-10T04:44:29;14.00;99.90
18932;DHT22;9598;50.954;3.112;2023-05-10T04:49:32;14.00;99.90
18932;DHT22;9598;50.954;3.112;2023-05-10T04:54:35;14.00;99.90
18932;DHT22;9598;50.954;3.112;2023-05-10T04:59:37;14.00;99.90
18932;DHT22;9598;50.954;3.112;2023-05-10T05:04:39;14.10;99.90
18932;DHT22;9598;50.954;3.112;2023-05-10T05:09:43;14.10;99.90
18932;DHT22;9598;50.954;3.112;2023-05-10T05:14:45;14.00;99.90
18932;DHT22;9598;50.954;3.112;2023-05-10T05:19:47;14.00;99.90
18932;DHT22;9598;50.954;3.112;2023-05-10T05:24:50;14.00;99.90
18932;DHT22;9598;50.954;3.112;2023-05-10T05:29:52;14.10;99.90
18932;DHT22;9598;50.954;3.112;2023-05-10T05:34:54;14.10;99.90
18932;DHT22;9598;50.954;3.112;2023-05-10T05:39:58;14.10;99.90
18932;DHT22;9598;50.954;3.112;2023-05-10T05:45:02;14.10;99.90
18932;DHT22;9598;50.954;3.112;2023-05-10T05:50:05;14.10;99.90
18932;DHT22;9598;50.954;3.112;2023-05-10T05:55:08;14.10;99.90
18932;DHT22;9598;50.954;3.112;2023-05-10T06:00:11;14.10;99.90
18932;DHT22;9598;50.954;3.112;2023-05-10T06:05:14;14.10;99.90
18932;DHT22;9598;50.954;3.112;2023-05-10T06:10:18;14.10;99.90
18932;DHT22;9598;50.954;3.112;2023-05-10T06:15:20;14.20;99.90
18932;DHT22;9598;50.954;3.112;2023-05-10T06:20:22;14.20;99.90
18932;DHT22;9598;50.954;3.112;2023-05-10T06:25:25;14.30;99.90
18932;DHT22;9598;50.954;3.112;2023-05-10T06:30:27;14.40;99.90
18932;DHT22;9598;50.954;3.112;2023-05-10T06:35:29;14.50;99.90
18932;DHT22;9598;50.954;3.112;2023-05-10T06:40:33;14.50;99.90
18932;DHT22;9598;50.954;3.112;2023-05-10T06:45:36;14.50;99.90
18932;DHT22;9598;50.954;3.112;2023-05-10T06:50:38;14.50;99.90
18932;DHT22;9598;50.954;3.112;2023-05-10T06:55:42;14.40;99.90
18932;DHT22;9598;50.954;3.112;2023-05-10T07:00:44;14.50;99.90
18932;DHT22;9598;50.954;3.112;2023-05-10T07:05:47;14.50;99.90
18932;DHT22;9598;50.954;3.112;2023-05-10T07:10:50;14.50;99.90
18932;DHT22;9598;50.954;3.112;2023-05-10T07:15:53;14.60;99.90
18932;DHT22;9598;50.954;3.112;2023-05-10T07:20:55;14.60;99.90
18932;DHT22;9598;50.954;3.112;2023-05-10T07:25:59;14.70;99.90
18932;DHT22;9598;50.954;3.112;2023-05-10T07:31:02;14.70;99.90
18932;DHT22;9598;50.954;3.112;2023-05-10T07:36:05;14.80;99.90
18932;DHT22;9598;50.954;3.112;2023-05-10T07:41:09;15.00;99.90
18932;DHT22;9598;50.954;3.112;2023-05-10T07:46:11;15.00;99.90
18932;DHT22;9598;50.954;3.112;2023-05-10T07:51:13;15.10;99.90
18932;DHT22;9598;50.954;3.112;2023-05-10T07:56:24;15.20;99.90
18932;DHT22;9598;50.954;3.112;2023-05-10T08:01:30;15.30;99.90
18932;DHT22;9598;50.954;3.112;2023-05-10T08:06:33;15.30;99.90
18932;DHT22;9598;50.954;3.112;2023-05-10T08:11:36;15.30;99.90
18932;DHT22;9598;50.954;3.112;2023-05-10T08:16:38;15.30;99.90
18932;DHT22;9598;50.954;3.112;2023-05-10T08:21:40;15.40;99.90
18932;DHT22;9598;50.954;3.112;2023-05-10T08:26:44;15.50;99.90
18932;DHT22;9598;50.954;3.112;2023-05-10T08:31:46;15.50;99.90
18932;DHT22;9598;50.954;3.112;2023-05-10T08:36:48;15.50;99.90
18932;DHT22;9598;50.954;3.112;2023-05-10T08:41:53;15.40;99.90
18932;DHT22;9598;50.954;3.112;2023-05-10T08:46:59;15.40;99.90
18932;DHT22;9598;50.954;3.112;2023-05-10T08:52:04;15.40;99.90
18932;DHT22;9598;50.954;3.112;2023-05-10T08:57:09;15.40;99.90
18932;DHT22;9598;50.954;3.112;2023-05-10T09:02:12;15.50;99.90
18932;DHT22;9598;50.954;3.112;2023-05-10T09:07:15;15.40;99.90
18932;DHT22;9598;50.954;3.112;2023-05-10T09:12:18;15.50;99.90
18932;DHT22;9598;50.954;3.112;2023-05-10T09:17:22;15.40;99.90
18932;DHT22;9598;50.954;3.112;2023-05-10T09:22:25;15.40;99.90
18932;DHT22;9598;50.954;3.112;2023-05-10T09:27:28;15.30;99.90
18932;DHT22;9598;50.954;3.112;2023-05-10T09:32:38;15.30;99.90
18932;DHT22;9598;50.954;3.112;2023-05-10T09:37:41;15.30;99.90
18932;DHT22;9598;50.954;3.112;2023-05-10T09:42:53;15.30;99.90
18932;DHT22;9598;50.954;3.112;2023-05-10T09:47:56;15.40;99.90
18932;DHT22;9598;50.954;3.112;2023-05-10T09:53:00;15.50;99.90
18932;DHT22;9598;50.954;3.112;2023-05-10T09:58:05;15.60;99.90
18932;DHT22;9598;50.954;3.112;2023-05-10T10:03:15;15.70;99.90
18932;DHT22;9598;50.954;3.112;2023-05-10T10:08:17;15.90;99.90
18932;DHT22;9598;50.954;3.112;2023-05-10T10:13:22;16.00;99.90
18932;DHT22;9598;50.954;3.112;2023-05-10T10:18:24;16.10;99.90
18932;DHT22;9598;50.954;3.112;2023-05-10T10:23:27;16.10;99.90
18932;DHT22;9598;50.954;3.112;2023-05-10T10:28:35;16.30;99.90
18932;DHT22;9598;50.954;3.112;2023-05-10T10:33:56;16.50;99.90
18932;DHT22;9598;50.954;3.112;2023-05-10T10:39:01;16.60;99.90
18932;DHT22;9598;50.954;3.112;2023-05-10T10:44:35;16.80;99.90
18932;DHT22;9598;50.954;3.112;2023-05-10T10:49:43;16.90;99.90
18932;DHT22;9598;50.954;3.112;2023-05-10T10:54:50;17.10;99.90
18932;DHT22;9598;50.954;3.112;2023-05-10T11:00:20;17.30;99.90
18932;DHT22;9598;50.954;3.112;2023-05-10T11:05:24;17.40;99.90
18932;DHT22;9598;50.954;3.112;2023-05-10T11:10:27;17.40;99.90
18932;DHT22;9598;50.954;3.112;2023-05-10T11:15:31;17.50;99.90
18932;DHT22;9598;50.954;3.112;2023-05-10T11:20:39;17.50;99.90
18932;DHT22;9598;50.954;3.112;2023-05-10T11:25:42;17.50;99.90
18932;DHT22;9598;50.954;3.112;2023-05-10T11:30:47;17.60;99.90
18932;DHT22;9598;50.954;3.112;2023-05-10T11:35:49;17.70;99.90
18932;DHT22;9598;50.954;3.112;2023-05-10T11:40:52;17.70;99.90
18932;DHT22;9598;50.954;3.112;2023-05-10T11:45:56;17.80;99.90
18932;DHT22;9598;50.954;3.112;2023-05-10T11:50:58;18.00;99.90
18932;DHT22;9598;50.954;3.112;2023-05-10T11:56:03;18.10;99.90
18932;DHT22;9598;50.954;3.112;2023-05-10T12:01:08;18.10;99.90
18932;DHT22;9598;50.954;3.112;2023-05-10T12:06:11;18.30;99.90
18932;DHT22;9598;50.954;3.112;2023-05-10T12:11:13;18.50;99.90
18932;DHT22;9598;50.954;3.112;2023-05-10T12:16:19;18.80;99.90
18932;DHT22;9598;50.954;3.112;2023-05-10T12:21:21;19.00;99.90
18932;DHT22;9598;50.954;3.112;2023-05-10T12:26:24;19.10;99.90
18932;DHT22;9598;50.954;3.112;2023-05-10T12:31:28;19.20;99.90
18932;DHT22;9598;50.954;3.112;2023-05-10T12:36:30;19.20;99.90
18932;DHT22;9598;50.954;3.112;2023-05-10T12:41:32;19.30;99.90
18932;DHT22;9598;50.954;3.112;2023-05-10T12:46:36;19.20;99.90
18932;DHT22;9598;50.954;3.112;2023-05-10T12:51:38;19.20;99.90
18932;DHT22;9598;50.954;3.112;2023-05-10T12:56:40;19.40;99.90
18932;DHT22;9598;50.954;3.112;2023-05-10T13:01:44;19.40;99.90
18932;DHT22;9598;50.954;3.112;2023-05-10T13:06:46;19.30;99.90
18932;DHT22;9598;50.954;3.112;2023-05-10T13:11:49;19.40;99.90
18932;DHT22;9598;50.954;3.112;2023-05-10T13:16:52;19.30;99.90
18932;DHT22;9598;50.954;3.112;2023-05-10T13:21:54;19.30;99.90
18932;DHT22;9598;50.954;3.112;2023-05-10T13:26:56;19.30;99.90
18932;DHT22;9598;50.954;3.112;2023-05-10T13:32:00;19.30;99.90
18932;DHT22;9598;50.954;3.112;2023-05-10T13:37:02;19.40;99.90
18932;DHT22;9598;50.954;3.112;2023-05-10T13:42:04;19.50;99.90
18932;DHT22;9598;50.954;3.112;2023-05-10T13:47:08;19.70;99.90
18932;DHT22;9598;50.954;3.112;2023-05-10T13:52:10;19.70;99.90
18932;DHT22;9598;50.954;3.112;2023-05-10T13:57:13;19.70;99.90
18932;DHT22;9598;50.954;3.112;2023-05-10T14:02:18;19.60;99.90
18932;DHT22;9598;50.954;3.112;2023-05-10T14:07:20;19.60;99.90
18932;DHT22;9598;50.954;3.112;2023-05-10T14:12:23;19.70;99.90
18932;DHT22;9598;50.954;3.112;2023-05-10T14:17:27;19.50;99.90
18932;DHT22;9598;50.954;3.112;2023-05-10T14:22:29;19.30;99.90
18932;DHT22;9598;50.954;3.112;2023-05-10T14:27:31;19.30;99.90
18932;DHT22;9598;50.954;3.112;2023-05-10T14:32:35;19.40;99.90
18932;DHT22;9598;50.954;3.112;2023-05-10T14:37:38;19.50;99.90
18932;DHT22;9598;50.954;3.112;2023-05-10T14:42:41;19.40;99.90
18932;DHT22;9598;50.954;3.112;2023-05-10T14:47:45;19.20;99.90
18932;DHT22;9598;50.954;3.112;2023-05-10T14:52:47;19.20;99.90
18932;DHT22;9598;50.954;3.112;2023-05-10T14:57:49;19.20;99.90
18932;DHT22;9598;50.954;3.112;2023-05-10T15:02:53;19.10;99.90
18932;DHT22;9598;50.954;3.112;2023-05-10T15:07:55;19.00;99.90
18932;DHT22;9598;50.954;3.112;2023-05-10T15:12:57;18.80;99.90
18932;DHT22;9598;50.954;3.112;2023-05-10T15:18:01;18.80;99.90
18932;DHT22;9598;50.954;3.112;2023-05-10T15:23:03;18.80;99.90
18932;DHT22;9598;50.954;3.112;2023-05-10T15:28:05;18.80;99.90
18932;DHT22;9598;50.954;3.112;2023-05-10T15:33:08;18.90;99.90
18932;DHT22;9598;50.954;3.112;2023-05-10T15:38:10;19.00;99.90
18932;DHT22;9598;50.954;3.112;2023-05-10T15:43:12;19.10;99.90
18932;DHT22;9598;50.954;3.112;2023-05-10T15:48:16;19.20;99.90
18932;DHT22;9598;50.954;3.112;2023-05-10T15:53:18;19.20;99.90
18932;DHT22;9598;50.954;3.112;2023-05-10T15:58:20;19.20;99.90
18932;DHT22;9598;50.954;3.112;2023-05-10T16:03:24;19.20;99.90
18932;DHT22;9598;50.954;3.112;2023-05-10T16:08:27;19.20;99.90
18932;DHT22;9598;50.954;3.112;2023-05-10T16:13:30;19.40;99.90
18932;DHT22;9598;50.954;3.112;2023-05-10T16:18:34;19.40;99.90
18932;DHT22;9598;50.954;3.112;2023-05-10T16:23:36;19.30;99.90
18932;DHT22;9598;50.954;3.112;2023-05-10T16:28:38;19.40;99.90
18932;DHT22;9598;50.954;3.112;2023-05-10T16:33:42;19.30;99.90
18932;DHT22;9598;50.954;3.112;2023-05-10T16:38:44;19.40;99.90
18932;DHT22;9598;50.954;3.112;2023-05-10T16:43:46;19.40;99.90
18932;DHT22;9598;50.954;3.112;2023-05-10T16:48:50;19.40;99.90
18932;DHT22;9598;50.954;3.112;2023-05-10T16:53:52;19.30;99.90
18932;DHT22;9598;50.954;3.112;2023-05-10T16:58:54;19.20;99.90
18932;DHT22;9598;50.954;3.112;2023-05-10T17:03:57;19.20;99.90
18932;DHT22;9598;50.954;3.112;2023-05-10T17:09:00;19.10;99.90
18932;DHT22;9598;50.954;3.112;2023-05-10T17:14:02;19.10;99.90
18932;DHT22;9598;50.954;3.112;2023-05-10T17:19:05;19.10;99.90
18932;DHT22;9598;50.954;3.112;2023-05-10T17:24:07;19.00;99.90
18932;DHT22;9598;50.954;3.112;2023-05-10T17:29:09;19.00;99.90
18932;DHT22;9598;50.954;3.112;2023-05-10T17:34:15;19.00;99.90
18932;DHT22;9598;50.954;3.112;2023-05-10T17:39:17;19.00;99.90
18932;DHT22;9598;50.954;3.112;2023-05-10T17:44:19;18.90;99.90
18932;DHT22;9598;50.954;3.112;2023-05-10T17:49:22;18.90;99.90
18932;DHT22;9598;50.954;3.112;2023-05-10T17:54:24;18.80;99.90
18932;DHT22;9598;50.954;3.112;2023-05-10T17:59:27;18.80;99.90
18932;DHT22;9598;50.954;3.112;2023-05-10T18:04:30;18.80;99.90
18932;DHT22;9598;50.954;3.112;2023-05-10T18:09:32;18.80;99.90
18932;DHT22;9598;50.954;3.112;2023-05-10T18:14:34;18.80;99.90
18932;DHT22;9598;50.954;3.112;2023-05-10T18:19:38;18.80;99.90
18932;DHT22;9598;50.954;3.112;2023-05-10T18:24:40;18.80;99.90
18932;DHT22;9598;50.954;3.112;2023-05-10T18:29:43;18.80;99.90
18932;DHT22;9598;50.954;3.112;2023-05-10T18:34:47;18.80;99.90
18932;DHT22;9598;50.954;3.112;2023-05-10T18:39:49;18.70;99.90
18932;DHT22;9598;50.954;3.112;2023-05-10T18:44:52;18.60;99.90
18932;DHT22;9598;50.954;3.112;2023-05-10T18:49:55;18.40;99.90
18932;DHT22;9598;50.954;3.112;2023-05-10T18:54:58;18.30;99.90
18932;DHT22;9598;50.954;3.112;2023-05-10T19:00:00;18.10;99.90
18932;DHT22;9598;50.954;3.112;2023-05-10T19:05:04;18.00;99.90
18932;DHT22;9598;50.954;3.112;2023-05-10T19:10:07;17.90;99.90
18932;DHT22;9598;50.954;3.112;2023-05-10T19:15:09;17.80;99.90
18932;DHT22;9598;50.954;3.112;2023-05-10T19:20:13;17.80;99.90
18932;DHT22;9598;50.954;3.112;2023-05-10T19:25:15;17.70;99.90
18932;DHT22;9598;50.954;3.112;2023-05-10T19:30:17;17.70;99.90
18932;DHT22;9598;50.954;3.112;2023-05-10T19:35:20;17.80;99.90
18932;DHT22;9598;50.954;3.112;2023-05-10T19:40:23;17.70;99.90
18932;DHT22;9598;50.954;3.112;2023-05-10T19:45:25;17.70;99.90
18932;DHT22;9598;50.954;3.112;2023-05-10T19:50:28;17.60;99.90
18932;DHT22;9598;50.954;3.112;2023-05-10T19:55:31;17.50;99.90
18932;DHT22;9598;50.954;3.112;2023-05-10T20:00:34;17.50;99.90
18932;DHT22;9598;50.954;3.112;2023-05-10T20:05:38;17.40;99.90
18932;DHT22;9598;50.954;3.112;2023-05-10T20:10:40;17.30;99.90
18932;DHT22;9598;50.954;3.112;2023-05-10T20:15:42;17.20;99.90
18932;DHT22;9598;50.954;3.112;2023-05-10T20:20:45;17.20;99.90
18932;DHT22;9598;50.954;3.112;2023-05-10T20:25:48;17.10;99.90
18932;DHT22;9598;50.954;3.112;2023-05-10T20:30:52;17.10;99.90
18932;DHT22;9598;50.954;3.112;2023-05-10T20:35:55;17.00;99.90
18932;DHT22;9598;50.954;3.112;2023-05-10T20:40:57;16.90;99.90
18932;DHT22;9598;50.954;3.112;2023-05-10T20:45:59;16.80;99.90
18932;DHT22;9598;50.954;3.112;2023-05-10T20:51:06;16.80;99.90
18932;DHT22;9598;50.954;3.112;2023-05-10T20:56:09;16.70;99.90
18932;DHT22;9598;50.954;3.112;2023-05-10T21:01:11;16.60;99.90
18932;DHT22;9598;50.954;3.112;2023-05-10T21:06:15;16.50;99.90
18932;DHT22;9598;50.954;3.112;2023-05-10T21:11:17;16.20;99.90
18932;DHT22;9598;50.954;3.112;2023-05-10T21:16:19;16.20;99.90
18932;DHT22;9598;50.954;3.112;2023-05-10T21:21:23;16.10;99.90
18932;DHT22;9598;50.954;3.112;2023-05-10T21:26:25;16.10;99.90
18932;DHT22;9598;50.954;3.112;2023-05-10T21:31:27;16.00;99.90
18932;DHT22;9598;50.954;3.112;2023-05-10T21:36:30;16.00;99.90
18932;DHT22;9598;50.954;3.112;2023-05-10T21:41:33;15.90;99.90
18932;DHT22;9598;50.954;3.112;2023-05-10T21:46:35;15.80;99.90
18932;DHT22;9598;50.954;3.112;2023-05-10T21:51:38;15.80;99.90
18932;DHT22;9598;50.954;3.112;2023-05-10T21:56:41;15.70;99.90
18932;DHT22;9598;50.954;3.112;2023-05-10T22:01:43;15.70;99.90
18932;DHT22;9598;50.954;3.112;2023-05-10T22:06:46;15.60;99.90
18932;DHT22;9598;50.954;3.112;2023-05-10T22:11:49;15.50;99.90
18932;DHT22;9598;50.954;3.112;2023-05-10T22:16:51;15.40;99.90
18932;DHT22;9598;50.954;3.112;2023-05-10T22:21:54;15.40;99.90
18932;DHT22;9598;50.954;3.112;2023-05-10T22:26:56;15.30;99.90
18932;DHT22;9598;50.954;3.112;2023-05-10T22:31:58;15.30;99.90
18932;DHT22;9598;50.954;3.112;2023-05-10T22:37:06;15.30;99.90
18932;DHT22;9598;50.954;3.112;2023-05-10T22:42:08;15.20;99.90
18932;DHT22;9598;50.954;3.112;2023-05-10T22:47:10;15.10;99.90
18932;DHT22;9598;50.954;3.112;2023-05-10T22:52:14;15.00;99.90
18932;DHT22;9598;50.954;3.112;2023-05-10T22:57:16;15.00;99.90
18932;DHT22;9598;50.954;3.112;2023-05-10T23:02:18;14.90;99.90
18932;DHT22;9598;50.954;3.112;2023-05-10T23:07:22;14.90;99.90
18932;DHT22;9598;50.954;3.112;2023-05-10T23:12:24;14.90;99.90
18932;DHT22;9598;50.954;3.112;2023-05-10T23:17:26;15.00;99.90
18932;DHT22;9598;50.954;3.112;2023-05-10T23:22:30;15.00;99.90
18932;DHT22;9598;50.954;3.112;2023-05-10T23:27:32;14.90;99.90
18932;DHT22;9598;50.954;3.112;2023-05-10T23:32:34;14.90;99.90
18932;DHT22;9598;50.954;3.112;2023-05-10T23:37:37;14.90;99.90
18932;DHT22;9598;50.954;3.112;2023-05-10T23:42:40;14.80;99.90
18932;DHT22;9598;50.954;3.112;2023-05-10T23:47:42;14.90;99.90
18932;DHT22;9598;50.954;3.112;2023-05-10T23:52:46;14.80;99.90
18932;DHT22;9598;50.954;3.112;2023-05-10T23:57:48;14.80;99.90
